Time;durP1;ratioP1;P1;durP2;ratioP2;P2;SDS_P1;SDS_P2;PMS_P1;PMS_P2;Temp;Humidity;BMP_temperature;BMP_pressure;BME280_temperature;BME280_humidity;BME280_pressure;Samples;Min_cycle;Max_cycle;Signal;HPM_P1;HPM_P2
2022/09/18 00:02:01;;;;;;;2.90;1.90;;;12.50;1.00;;;;;;5042954;28;20675;-75
2022/09/18 00:04:27;;;;;;;3.20;1.83;;;12.50;1.00;;;;;;5042151;28;20264;-75
2022/09/18 00:06:52;;;;;;;5.90;1.97;;;12.50;1.00;;;;;;5044092;28;20942;-75
2022/09/18 00:09:18;;;;;;;6.33;1.80;;;12.50;1.00;;;;;;5047352;28;20355;-76
2022/09/18 00:11:46;;;;;;;7.33;2.10;;;12.50;1.00;;;;;;5034031;28;20236;-75
2022/09/18 00:14:15;;;;;;;4.70;2.37;;;12.30;1.00;;;;;;5043439;28;20181;-75
2022/09/18 00:16:40;;;;;;;4.60;1.87;;;12.30;1.00;;;;;;5046083;28;20509;-76
2022/09/18 00:19:07;;;;;;;6.70;1.97;;;12.30;1.00;;;;;;5036132;28;20822;-75
2022/09/18 00:21:34;;;;;;;4.63;1.70;;;12.30;1.00;;;;;;5047680;28;20655;-75
2022/09/18 00:24:00;;;;;;;5.90;1.80;;;12.30;1.00;;;;;;5041444;28;20836;-75
2022/09/18 00:26:27;;;;;;;7.47;2.00;;;12.30;1.00;;;;;;5041641;28;21031;-75
2022/09/18 00:28:57;;;;;;;4.10;1.60;;;12.30;1.00;;;;;;5039501;28;20790;-76
2022/09/18 00:31:28;;;;;;;6.13;1.87;;;12.40;1.00;;;;;;5043300;28;20537;-75
2022/09/18 00:33:55;;;;;;;3.10;1.77;;;12.30;1.00;;;;;;5045039;28;20524;-75
2022/09/18 00:36:22;;;;;;;7.90;2.23;;;12.30;1.00;;;;;;5045883;28;20860;-75
2022/09/18 00:38:48;;;;;;;6.60;2.13;;;12.40;1.00;;;;;;5043757;28;20852;-75
2022/09/18 00:41:24;;;;;;;4.93;1.80;;;12.40;1.00;;;;;;5046951;28;20522;-74
2022/09/18 00:43:52;;;;;;;4.57;1.83;;;12.40;1.00;;;;;;5041934;28;20475;-75
2022/09/18 00:46:22;;;;;;;6.60;2.37;;;12.40;1.00;;;;;;5038632;28;20465;-75
2022/09/18 00:49:03;;;;;;;6.13;1.63;;;12.40;1.00;;;;;;5035945;28;20905;-75
2022/09/18 00:51:32;;;;;;;9.40;2.17;;;12.40;1.00;;;;;;5039963;28;20455;-75
2022/09/18 00:54:21;;;;;;;4.10;2.10;;;12.40;1.00;;;;;;5047276;28;20428;-75
2022/09/18 00:56:51;;;;;;;5.37;1.67;;;12.40;1.00;;;;;;5046259;28;20452;-75
2022/09/18 00:59:26;;;;;;;4.60;1.50;;;12.40;1.00;;;;;;5047766;28;20436;-75
2022/09/18 01:01:52;;;;;;;3.10;1.77;;;12.40;1.00;;;;;;5044691;28;20525;-75
2022/09/18 01:04:17;;;;;;;4.53;1.87;;;12.40;1.00;;;;;;5041193;28;20960;-75
2022/09/18 01:07:07;;;;;;;4.40;2.00;;;12.40;1.00;;;;;;5048636;28;20443;-75
2022/09/18 01:09:52;;;;;;;5.57;1.73;;;12.30;1.00;;;;;;5049407;28;20641;-75
2022/09/18 01:12:29;;;;;;;5.30;1.87;;;12.40;1.00;;;;;;5039358;28;20424;-75
2022/09/18 01:15:25;;;;;;;3.13;1.80;;;12.30;1.00;;;;;;5044245;28;21030;-75
2022/09/18 01:18:18;;;;;;;7.03;2.07;;;12.30;1.00;;;;;;5038621;28;20728;-75
2022/09/18 01:20:53;;;;;;;7.10;2.23;;;12.30;1.00;;;;;;5043942;28;20443;-75
2022/09/18 01:23:43;;;;;;;5.10;2.00;;;12.30;1.00;;;;;;5037176;28;20447;-75
2022/09/18 01:26:30;;;;;;;3.13;1.77;;;12.20;1.00;;;;;;5037942;28;20877;-75
2022/09/18 01:29:03;;;;;;;3.93;2.00;;;12.20;1.00;;;;;;5044500;28;20451;-75
2022/09/18 01:31:43;;;;;;;7.50;1.90;;;12.10;1.00;;;;;;5044318;28;20470;-75
2022/09/18 01:34:19;;;;;;;5.50;2.07;;;12.10;1.00;;;;;;5038902;28;20434;-75
2022/09/18 01:36:51;;;;;;;9.90;2.00;;;12.10;1.00;;;;;;5040757;28;20835;-75
2022/09/18 01:39:33;;;;;;;3.30;1.50;;;12.10;1.00;;;;;;5047167;28;20408;-75
2022/09/18 01:42:03;;;;;;;4.40;1.90;;;12.00;1.00;;;;;;5043597;28;20435;-75
2022/09/18 01:44:31;;;;;;;5.50;1.67;;;12.00;1.00;;;;;;5046271;28;20529;-75
2022/09/18 01:46:59;;;;;;;4.83;1.90;;;12.00;1.00;;;;;;5037364;28;20757;-77
2022/09/18 01:49:30;;;;;;;6.00;1.83;;;12.10;1.00;;;;;;5028781;28;20471;-75
2022/09/18 01:52:09;;;;;;;3.43;1.60;;;12.00;1.00;;;;;;5040437;28;20463;-75
2022/09/18 01:54:39;;;;;;;8.30;1.97;;;12.00;1.00;;;;;;5038703;28;20438;-74
2022/09/18 01:57:33;;;;;;;5.70;2.00;;;12.00;1.00;;;;;;5041101;28;20520;-75
2022/09/18 02:00:14;;;;;;;5.60;1.80;;;12.00;1.00;;;;;;5034331;28;20549;-75
2022/09/18 02:02:45;;;;;;;2.53;1.70;;;12.00;1.00;;;;;;5042605;28;21013;-75
2022/09/18 02:05:16;;;;;;;7.53;1.97;;;12.00;1.00;;;;;;5045406;28;20462;-75
2022/09/18 02:07:59;;;;;;;2.17;1.67;;;11.90;1.00;;;;;;5044149;28;20498;-75
2022/09/18 02:10:27;;;;;;;3.43;1.63;;;11.90;1.00;;;;;;5045145;28;20472;-75
2022/09/18 02:12:55;;;;;;;6.23;2.40;;;11.90;1.00;;;;;;5044234;28;20816;-75
2022/09/18 02:15:24;;;;;;;4.60;1.90;;;11.90;1.00;;;;;;5043436;28;20522;-75
2022/09/18 02:17:58;;;;;;;5.73;1.90;;;11.90;1.00;;;;;;5048433;28;20451;-75
2022/09/18 02:20:26;;;;;;;4.00;1.60;;;12.00;1.00;;;;;;5043170;28;20907;-74
2022/09/18 02:22:56;;;;;;;3.60;1.70;;;12.00;1.00;;;;;;5047206;28;20517;-75
2022/09/18 02:25:29;;;;;;;4.10;2.10;;;12.00;1.00;;;;;;5045345;28;20501;-75
2022/09/18 02:27:55;;;;;;;8.50;2.13;;;12.00;1.00;;;;;;5044566;28;20834;-75
2022/09/18 02:30:21;;;;;;;3.47;1.87;;;12.10;1.00;;;;;;5050439;28;20458;-75
2022/09/18 02:32:51;;;;;;;5.47;1.97;;;12.10;1.00;;;;;;5044545;28;20431;-75
2022/09/18 02:35:17;;;;;;;4.47;1.83;;;12.00;1.00;;;;;;5045322;28;20982;-75
2022/09/18 02:38:05;;;;;;;3.83;2.17;;;12.00;1.00;;;;;;5038888;28;20538;-75
2022/09/18 02:40:45;;;;;;;10.10;2.30;;;11.90;1.00;;;;;;5042146;28;20190;-75
2022/09/18 02:43:34;;;;;;;7.33;2.33;;;11.80;1.00;;;;;;5040122;28;20432;-75
2022/09/18 02:46:45;;;;;;;4.13;2.13;;;11.60;1.00;;;;;;5050205;28;20439;-75
2022/09/18 02:49:32;;;;;;;3.93;2.30;;;11.50;1.00;;;;;;5036994;28;20443;-75
2022/09/18 02:52:01;;;;;;;3.50;2.00;;;11.40;4.70;;;;;;5045290;28;20704;-74
2022/09/18 02:55:06;;;;;;;5.00;2.17;;;11.50;3.40;;;;;;5041668;28;20425;-75
2022/09/18 02:57:37;;;;;;;7.80;2.40;;;11.50;2.40;;;;;;5043827;28;20451;-76
2022/09/18 03:00:05;;;;;;;4.00;2.00;;;11.40;2.00;;;;;;5042845;28;20941;-75
2022/09/18 03:02:31;;;;;;;4.87;2.43;;;11.30;5.70;;;;;;5045832;28;20485;-76
2022/09/18 03:04:56;;;;;;;4.60;2.10;;;11.30;7.60;;;;;;5042047;28;20500;-75
2022/09/18 03:07:22;;;;;;;5.03;2.10;;;11.20;8.30;;;;;;5038812;28;20219;-75
2022/09/18 03:09:47;;;;;;;4.23;2.20;;;11.20;12.70;;;;;;5045193;28;20181;-75
2022/09/18 03:12:13;;;;;;;4.57;2.33;;;11.20;13.80;;;;;;5045530;28;20254;-75
2022/09/18 03:14:39;;;;;;;9.50;2.40;;;11.30;15.30;;;;;;5045905;28;20181;-76
2022/09/18 03:17:04;;;;;;;4.40;2.27;;;11.20;16.30;;;;;;5049861;28;20703;-75
2022/09/18 03:19:30;;;;;;;5.73;2.20;;;11.30;15.00;;;;;;5042529;28;20184;-75
2022/09/18 03:21:56;;;;;;;3.80;2.10;;;11.30;18.20;;;;;;5042021;28;20660;-75
2022/09/18 03:24:24;;;;;;;2.93;2.20;;;11.20;13.40;;;;;;5035640;28;20209;-75
2022/09/18 03:26:51;;;;;;;6.30;2.47;;;11.20;17.60;;;;;;5046924;28;20223;-76
2022/09/18 03:29:16;;;;;;;4.53;2.20;;;11.20;22.70;;;;;;5048818;28;20796;-75
2022/09/18 03:31:42;;;;;;;3.43;2.40;;;11.20;19.20;;;;;;5045578;28;20459;-75
2022/09/18 03:34:07;;;;;;;6.13;2.80;;;11.20;24.80;;;;;;5041621;28;20180;-75
2022/09/18 03:36:33;;;;;;;5.63;2.00;;;11.20;26.30;;;;;;5042381;28;20194;-75
2022/09/18 03:38:59;;;;;;;2.70;2.27;;;11.20;18.00;;;;;;5039586;28;20206;-75
2022/09/18 03:41:24;;;;;;;5.80;2.30;;;11.20;19.90;;;;;;5044353;28;20177;-75
2022/09/18 03:43:50;;;;;;;5.13;2.10;;;11.10;21.70;;;;;;5041993;28;20653;-76
2022/09/18 03:46:22;;;;;;;5.30;2.60;;;11.10;23.80;;;;;;5044824;28;20272;-75
2022/09/18 03:48:49;;;;;;;5.47;2.40;;;11.10;23.80;;;;;;5040057;28;20182;-75
2022/09/18 03:51:14;;;;;;;3.53;2.50;;;11.00;24.90;;;;;;5036069;28;20464;-75
2022/09/18 03:53:40;;;;;;;6.27;2.77;;;11.00;26.80;;;;;;5044586;28;20431;-74
2022/09/18 03:56:05;;;;;;;4.60;2.80;;;11.00;27.30;;;;;;5042365;28;20193;-75
2022/09/18 03:58:31;;;;;;;4.87;2.50;;;10.90;30.30;;;;;;5044573;28;20184;-75
2022/09/18 04:00:56;;;;;;;2.97;2.53;;;10.90;33.70;;;;;;5041409;28;20589;-75
2022/09/18 04:03:22;;;;;;;8.10;3.30;;;10.90;38.40;;;;;;5038843;28;20189;-75
2022/09/18 04:05:49;;;;;;;6.13;2.73;;;11.00;36.60;;;;;;5044787;28;20205;-75
2022/09/18 04:08:15;;;;;;;4.30;2.60;;;11.00;39.00;;;;;;5050197;28;20165;-74
2022/09/18 04:10:40;;;;;;;8.97;2.73;;;11.10;38.70;;;;;;5049459;28;20462;-75
2022/09/18 04:13:06;;;;;;;7.73;2.60;;;11.10;38.50;;;;;;5048659;28;20412;-75
2022/09/18 04:15:31;;;;;;;6.70;2.13;;;11.10;38.80;;;;;;5055048;28;20761;-75
2022/09/18 04:17:57;;;;;;;5.17;2.70;;;11.00;38.70;;;;;;5058430;28;20193;-73
2022/09/18 04:20:22;;;;;;;4.47;2.60;;;11.00;38.80;;;;;;5040758;28;20212;-75
2022/09/18 04:22:48;;;;;;;7.10;2.63;;;11.00;38.70;;;;;;5048758;28;20188;-75
2022/09/18 04:25:13;;;;;;;4.80;2.47;;;11.00;38.70;;;;;;5046273;28;20699;-75
2022/09/18 04:27:39;;;;;;;3.57;2.50;;;11.00;38.70;;;;;;5045080;28;20225;-75
2022/09/18 04:30:05;;;;;;;2.80;2.33;;;11.00;38.70;;;;;;5044460;28;20459;-76
2022/09/18 04:32:31;;;;;;;5.97;2.37;;;11.00;38.70;;;;;;5046736;28;20289;-75
2022/09/18 04:34:56;;;;;;;5.10;2.30;;;11.00;38.80;;;;;;5049352;28;20507;-75
2022/09/18 04:37:22;;;;;;;3.77;2.37;;;11.00;38.80;;;;;;5045441;28;20207;-75
2022/09/18 04:39:48;;;;;;;3.83;2.20;;;11.00;38.70;;;;;;5043805;28;20178;-75
2022/09/18 04:42:13;;;;;;;3.07;2.17;;;11.00;41.40;;;;;;5029450;28;20166;-76
2022/09/18 04:44:39;;;;;;;4.30;2.33;;;11.00;38.80;;;;;;5040353;28;20659;-75
2022/09/18 04:47:05;;;;;;;3.73;2.23;;;11.00;38.80;;;;;;5046248;28;20842;-75
2022/09/18 04:49:30;;;;;;;8.10;2.40;;;11.10;39.00;;;;;;5041662;28;20173;-75
2022/09/18 04:51:56;;;;;;;4.90;2.27;;;11.10;38.80;;;;;;5045263;28;20467;-75
2022/09/18 04:54:21;;;;;;;8.00;2.80;;;11.00;38.80;;;;;;5049905;28;20184;-76
2022/09/18 04:56:47;;;;;;;3.50;2.23;;;11.00;38.80;;;;;;5045715;28;20236;-75
2022/09/18 04:59:12;;;;;;;5.00;2.53;;;10.90;38.80;;;;;;5047388;28;20173;-75
2022/09/18 05:01:38;;;;;;;4.13;2.27;;;10.90;38.70;;;;;;5049163;28;20534;-76
2022/09/18 05:04:03;;;;;;;4.47;2.90;;;10.90;38.80;;;;;;5047989;28;20180;-75
2022/09/18 05:06:29;;;;;;;4.77;2.03;;;10.90;38.90;;;;;;5047148;28;20201;-74
2022/09/18 05:08:54;;;;;;;5.40;2.37;;;10.80;38.70;;;;;;5049593;28;20246;-76
2022/09/18 05:11:20;;;;;;;3.20;2.00;;;10.90;38.80;;;;;;5049320;28;20711;-76
2022/09/18 05:13:49;;;;;;;2.83;2.30;;;10.90;38.80;;;;;;5043007;28;20183;-75
2022/09/18 05:16:15;;;;;;;4.43;2.30;;;10.90;38.80;;;;;;5039342;28;20617;-74
2022/09/18 05:18:41;;;;;;;2.90;2.43;;;10.90;38.80;;;;;;5038567;28;20959;-76
2022/09/18 05:21:06;;;;;;;4.23;2.40;;;10.90;38.80;;;;;;5043725;28;20424;-75
2022/09/18 05:23:36;;;;;;;4.20;2.20;;;10.80;41.30;;;;;;5042599;28;20185;-74
2022/09/18 05:26:02;;;;;;;3.80;2.43;;;10.90;41.80;;;;;;5040940;28;20204;-75
2022/09/18 05:28:28;;;;;;;10.40;2.50;;;10.90;38.80;;;;;;5042483;28;20461;-75
2022/09/18 05:30:58;;;;;;;3.40;2.30;;;10.90;38.90;;;;;;5046122;28;20558;-75
2022/09/18 05:33:25;;;;;;;5.13;2.20;;;10.90;42.30;;;;;;5048160;28;20977;-76
2022/09/18 05:35:53;;;;;;;7.00;2.40;;;11.00;36.70;;;;;;5045819;28;20403;-74
2022/09/18 05:38:19;;;;;;;8.57;2.63;;;11.00;38.90;;;;;;5047602;28;20812;-75
2022/09/18 05:40:47;;;;;;;5.20;2.90;;;11.10;39.00;;;;;;5035069;28;20471;-77
2022/09/18 05:43:13;;;;;;;7.93;2.57;;;11.00;38.80;;;;;;5041985;28;20172;-75
2022/09/18 05:45:39;;;;;;;7.43;2.80;;;11.00;38.90;;;;;;5052511;28;20421;-75
2022/09/18 05:48:05;;;;;;;3.83;2.73;;;11.00;38.80;;;;;;5037361;28;20459;-75
2022/09/18 05:50:32;;;;;;;7.07;3.03;;;11.00;38.80;;;;;;5043310;28;20201;-75
2022/09/18 05:53:03;;;;;;;4.90;2.73;;;10.90;38.80;;;;;;5039338;28;20985;-75
2022/09/18 05:55:29;;;;;;;7.10;3.30;;;10.90;38.70;;;;;;5044604;28;20415;-75
2022/09/18 05:57:56;;;;;;;9.73;3.30;;;10.90;38.70;;;;;;5037866;28;20486;-75
2022/09/18 06:00:23;;;;;;;6.50;2.90;;;11.00;38.80;;;;;;5048896;28;20439;-75
2022/09/18 06:02:52;;;;;;;6.33;3.50;;;11.00;38.80;;;;;;5039155;28;20943;-74
2022/09/18 06:05:17;;;;;;;5.53;3.57;;;11.00;38.70;;;;;;5048136;28;20438;-76
2022/09/18 06:07:43;;;;;;;6.97;3.60;;;11.00;38.80;;;;;;5039055;28;20455;-75
2022/09/18 06:10:09;;;;;;;8.73;3.67;;;11.00;38.90;;;;;;5048341;28;20205;-75
2022/09/18 06:12:34;;;;;;;10.83;3.77;;;10.90;38.70;;;;;;5043336;28;20173;-75
2022/09/18 06:15:00;;;;;;;7.40;3.40;;;11.10;38.80;;;;;;5047007;28;20179;-74
2022/09/18 06:17:25;;;;;;;6.03;3.70;;;11.20;38.90;;;;;;5048572;28;20208;-75
2022/09/18 06:19:51;;;;;;;5.27;3.53;;;11.30;39.10;;;;;;5040981;28;20188;-75
2022/09/18 06:22:16;;;;;;;10.57;3.77;;;11.40;39.00;;;;;;5039546;28;20178;-75
2022/09/18 06:24:42;;;;;;;7.20;4.03;;;11.50;29.10;;;;;;5048600;28;20196;-74
2022/09/18 06:27:07;;;;;;;7.10;3.70;;;11.60;33.10;;;;;;5044755;28;20255;-75
2022/09/18 06:29:33;;;;;;;6.77;3.90;;;11.70;28.30;;;;;;5044621;28;20219;-74
2022/09/18 06:31:58;;;;;;;9.90;4.13;;;11.70;22.70;;;;;;5041420;28;20223;-74
2022/09/18 06:34:24;;;;;;;5.67;3.70;;;11.80;25.40;;;;;;5047836;28;20181;-74
2022/09/18 06:36:50;;;;;;;10.17;3.50;;;11.80;22.20;;;;;;5038389;28;20217;-74
2022/09/18 06:39:15;;;;;;;8.07;4.07;;;11.80;16.70;;;;;;5041537;28;20184;-74
2022/09/18 06:41:41;;;;;;;8.80;4.20;;;11.90;19.00;;;;;;5042546;28;20598;-73
2022/09/18 06:44:07;;;;;;;8.23;4.17;;;11.90;17.20;;;;;;5045399;28;20256;-73
2022/09/18 06:46:33;;;;;;;9.63;4.00;;;12.00;18.60;;;;;;5056382;28;20515;-74
2022/09/18 06:48:58;;;;;;;10.70;4.30;;;12.00;14.50;;;;;;5048005;28;20501;-75
2022/09/18 06:51:24;;;;;;;7.20;4.33;;;12.00;13.40;;;;;;5040740;28;20244;-74
2022/09/18 06:53:49;;;;;;;5.33;3.50;;;12.00;20.70;;;;;;5028888;28;20170;-74
2022/09/18 06:56:15;;;;;;;6.23;3.80;;;12.10;14.10;;;;;;5044846;28;20216;-74
2022/09/18 06:58:40;;;;;;;4.90;3.43;;;12.30;15.90;;;;;;5051762;28;20177;-74
2022/09/18 07:01:06;;;;;;;18.33;4.70;;;12.20;9.40;;;;;;5051715;28;20244;-74
2022/09/18 07:03:31;;;;;;;6.60;3.40;;;12.30;10.40;;;;;;5050618;28;20209;-74
2022/09/18 07:05:57;;;;;;;4.10;3.50;;;12.40;5.90;;;;;;5047723;28;20193;-74
2022/09/18 07:08:22;;;;;;;8.25;4.00;;;12.50;5.50;;;;;;5043132;28;20806;-79
2022/09/18 07:10:48;;;;;;;5.60;3.10;;;12.80;15.00;;;;;;5040720;28;20719;-79
2022/09/18 07:13:13;;;;;;;6.00;2.97;;;13.10;5.50;;;;;;5047737;28;20169;-80
2022/09/18 07:15:39;;;;;;;3.60;2.83;;;13.40;1.00;;;;;;5060895;28;20569;-74
2022/09/18 07:18:06;;;;;;;6.30;3.33;;;13.60;1.00;;;;;;5045332;28;20209;-75
2022/09/18 07:20:32;;;;;;;7.90;3.00;;;13.70;1.00;;;;;;5047593;28;20169;-75
2022/09/18 07:22:59;;;;;;;6.20;3.37;;;13.60;1.00;;;;;;5047794;28;20436;-74
2022/09/18 07:25:27;;;;;;;4.90;2.83;;;13.60;1.00;;;;;;5050737;28;20169;-73
2022/09/18 07:27:52;;;;;;;7.90;2.77;;;13.60;1.00;;;;;;5038414;28;20523;-75
2022/09/18 07:30:19;;;;;;;5.17;2.77;;;13.60;1.00;;;;;;5049679;28;20455;-75
2022/09/18 07:32:45;;;;;;;5.83;2.57;;;13.70;1.00;;;;;;5047325;28;20207;-75
2022/09/18 07:35:11;;;;;;;5.67;2.40;;;13.80;1.00;;;;;;5050444;28;20404;-74
2022/09/18 07:37:37;;;;;;;8.10;2.53;;;13.90;1.00;;;;;;5047800;28;20824;-74
2022/09/18 07:40:04;;;;;;;3.27;2.90;;;13.90;1.00;;;;;;5048827;28;20652;-74
2022/09/18 07:42:29;;;;;;;10.77;2.60;;;13.90;1.00;;;;;;5046175;28;20415;-74
2022/09/18 07:44:55;;;;;;;6.57;2.50;;;14.00;1.00;;;;;;5053781;28;20963;-74
2022/09/18 07:47:20;;;;;;;5.57;2.20;;;14.00;1.00;;;;;;5048022;28;20201;-75
2022/09/18 07:49:46;;;;;;;4.87;2.97;;;14.00;1.00;;;;;;5037462;28;20182;-74
2022/09/18 07:52:11;;;;;;;3.60;2.13;;;14.00;1.00;;;;;;5045107;28;20315;-75
2022/09/18 07:54:37;;;;;;;5.00;2.03;;;14.00;1.00;;;;;;5047924;28;20180;-75
2022/09/18 07:57:03;;;;;;;4.20;2.10;;;13.80;1.00;;;;;;5047517;28;20312;-75
2022/09/18 07:59:28;;;;;;;3.47;1.93;;;13.80;1.00;;;;;;5043604;28;20609;-74
2022/09/18 08:01:54;;;;;;;2.90;2.20;;;13.80;1.00;;;;;;5043726;28;20675;-74
2022/09/18 08:04:21;;;;;;;7.47;2.30;;;13.90;1.00;;;;;;5050554;28;20188;-74
2022/09/18 08:06:53;;;;;;;2.63;2.10;;;14.00;1.00;;;;;;5050454;28;20185;-74
2022/09/18 08:09:20;;;;;;;4.23;2.00;;;14.10;1.00;;;;;;5035546;28;20432;-75
2022/09/18 08:11:46;;;;;;;2.73;1.87;;;14.30;1.00;;;;;;5030789;28;20522;-75
2022/09/18 08:14:11;;;;;;;3.40;2.07;;;14.40;1.00;;;;;;5048177;28;20454;-74
2022/09/18 08:16:37;;;;;;;2.83;1.90;;;14.50;1.00;;;;;;5061290;28;20986;-75
2022/09/18 08:19:02;;;;;;;4.53;1.80;;;14.60;1.00;;;;;;5071117;28;20266;-75
2022/09/18 08:21:29;;;;;;;4.43;2.13;;;14.60;1.00;;;;;;5054719;28;20181;-76
2022/09/18 08:23:55;;;;;;;3.50;1.93;;;14.70;1.00;;;;;;5051165;28;20636;-75
2022/09/18 08:26:21;;;;;;;3.37;1.97;;;14.90;1.00;;;;;;5051605;28;20514;-74
2022/09/18 08:28:48;;;;;;;11.10;1.90;;;15.10;1.00;;;;;;5050614;28;20435;-75
2022/09/18 08:31:14;;;;;;;2.67;2.00;;;15.00;1.00;;;;;;5051644;28;20291;-74
2022/09/18 08:33:39;;;;;;;2.97;2.07;;;15.00;1.00;;;;;;5050796;28;20968;-75
2022/09/18 08:36:05;;;;;;;3.60;1.97;;;15.00;1.00;;;;;;5051549;28;20185;-75
2022/09/18 08:38:31;;;;;;;4.60;2.13;;;15.00;1.00;;;;;;5051246;28;20165;-74
2022/09/18 08:41:05;;;;;;;5.90;1.90;;;15.10;1.00;;;;;;5051311;28;20173;-74
2022/09/18 08:43:46;;;;;;;9.43;2.00;;;15.20;1.00;;;;;;5042197;28;20259;-74
2022/09/18 08:46:24;;;;;;;3.90;2.10;;;15.40;1.00;;;;;;5052878;28;20518;-75
2022/09/18 08:49:15;;;;;;;3.77;1.93;;;15.50;1.00;;;;;;5050382;28;20412;-75
2022/09/18 08:51:53;;;;;;;5.13;2.20;;;15.70;1.00;;;;;;5050688;28;20463;-74
2022/09/18 08:54:35;;;;;;;3.67;1.87;;;15.70;1.00;;;;;;5051005;28;20414;-75
2022/09/18 08:57:09;;;;;;;7.57;1.63;;;15.70;1.00;;;;;;5048645;28;20455;-74
2022/09/18 08:59:40;;;;;;;4.20;1.90;;;15.50;1.00;;;;;;5031147;28;20404;-75
2022/09/18 09:02:29;;;;;;;5.90;1.90;;;15.50;1.00;;;;;;5030476;28;20428;-75
2022/09/18 09:05:00;;;;;;;5.03;2.23;;;15.40;1.00;;;;;;5049205;28;20426;-75
2022/09/18 09:07:50;;;;;;;2.20;1.70;;;15.50;1.00;;;;;;5049996;28;20975;-74
2022/09/18 09:10:41;;;;;;;5.90;2.70;;;15.50;1.00;;;;;;5050477;28;20455;-74
2022/09/18 09:13:26;;;;;;;3.77;2.10;;;15.50;1.00;;;;;;5049993;28;20483;-75
2022/09/18 09:16:04;;;;;;;5.10;2.27;;;15.70;1.00;;;;;;5061222;28;20408;-75
2022/09/18 09:18:52;;;;;;;3.17;2.00;;;15.90;1.00;;;;;;5069430;28;20398;-75
2022/09/18 09:21:23;;;;;;;3.17;1.90;;;15.90;1.00;;;;;;5066207;28;20880;-75
2022/09/18 09:24:19;;;;;;;3.90;2.20;;;16.10;1.00;;;;;;5050406;28;20404;-74
2022/09/18 09:26:47;;;;;;;3.50;2.00;;;16.10;1.00;;;;;;5050310;28;20478;-75
2022/09/18 09:29:23;;;;;;;3.50;2.00;;;16.20;1.00;;;;;;5050524;28;20455;-75
2022/09/18 09:31:53;;;;;;;5.33;2.00;;;16.50;1.00;;;;;;5048162;28;20884;-74
2022/09/18 09:34:35;;;;;;;4.30;2.30;;;16.80;1.00;;;;;;5049441;28;20489;-75
2022/09/18 09:37:05;;;;;;;7.57;2.43;;;17.10;1.00;;;;;;5030222;28;20435;-74
2022/09/18 09:39:39;;;;;;;4.17;2.07;;;17.50;1.00;;;;;;5039803;28;20857;-75
2022/09/18 09:42:30;;;;;;;3.97;1.90;;;17.60;1.00;;;;;;5047146;28;20436;-76
2022/09/18 09:45:01;;;;;;;4.07;2.20;;;17.80;1.00;;;;;;5046351;28;20547;-76
2022/09/18 09:47:49;;;;;;;5.90;2.23;;;17.70;1.00;;;;;;5043723;28;20942;-76
2022/09/18 09:50:36;;;;;;;3.37;2.13;;;18.20;1.00;;;;;;5028935;28;20487;-75
2022/09/18 09:53:06;;;;;;;5.20;2.00;;;18.80;1.00;;;;;;5029946;28;22358;-75
2022/09/18 09:55:58;;;;;;;9.40;2.20;;;18.90;1.00;;;;;;5043794;28;20431;-75
2022/09/18 09:58:50;;;;;;;4.60;2.20;;;18.20;1.00;;;;;;5043766;28;20442;-75
2022/09/18 10:01:30;;;;;;;5.30;2.20;;;17.90;1.00;;;;;;5042659;28;20444;-75
2022/09/18 10:04:21;;;;;;;4.70;2.30;;;18.00;1.00;;;;;;5048402;28;20442;-75
2022/09/18 10:07:11;;;;;;;9.20;2.20;;;18.20;1.00;;;;;;5042555;28;20451;-75
2022/09/18 10:09:48;;;;;;;10.03;2.90;;;18.60;1.00;;;;;;5037015;28;20523;-75
2022/09/18 10:12:50;;;;;;;3.93;2.20;;;19.00;1.00;;;;;;5046614;28;20555;-75
2022/09/18 10:15:21;;;;;;;7.40;2.83;;;19.40;1.00;;;;;;5045674;28;20415;-74
2022/09/18 10:17:50;;;;;;;6.53;2.40;;;20.10;1.00;;;;;;5057517;28;20455;-75
2022/09/18 10:20:20;;;;;;;4.80;2.33;;;20.30;1.00;;;;;;5042599;28;21001;-75
2022/09/18 10:22:46;;;;;;;4.20;2.07;;;19.50;1.00;;;;;;5033853;28;20551;-74
2022/09/18 10:25:30;;;;;;;4.77;2.40;;;18.90;1.00;;;;;;5044743;28;20798;-76
2022/09/18 10:27:56;;;;;;;7.60;2.30;;;18.50;1.00;;;;;;5046331;28;20462;-75
2022/09/18 10:30:21;;;;;;;9.63;2.17;;;18.40;1.00;;;;;;5052896;28;20470;-75
2022/09/18 10:32:48;;;;;;;7.03;2.00;;;18.50;1.00;;;;;;5050265;28;20185;-74
2022/09/18 10:35:28;;;;;;;7.90;2.00;;;18.60;1.00;;;;;;5043988;28;20215;-75
2022/09/18 10:37:54;;;;;;;4.70;2.23;;;18.70;1.00;;;;;;5050901;28;20452;-75
2022/09/18 10:40:36;;;;;;;5.23;2.10;;;18.80;1.00;;;;;;5052769;28;20469;-75
2022/09/18 10:43:03;;;;;;;4.00;2.10;;;18.80;1.00;;;;;;5046854;28;20480;-75
2022/09/18 10:45:35;;;;;;;6.20;2.00;;;18.80;1.00;;;;;;5048630;28;20427;-74
2022/09/18 10:48:12;;;;;;;4.40;2.00;;;18.70;1.00;;;;;;5042454;28;20524;-75
2022/09/18 10:50:50;;;;;;;3.80;2.00;;;18.60;1.00;;;;;;5050507;28;20510;-74
2022/09/18 10:53:36;;;;;;;2.73;1.67;;;18.70;1.00;;;;;;5051976;28;20404;-75
2022/09/18 10:56:04;;;;;;;4.77;2.10;;;18.80;1.00;;;;;;5043379;28;20514;-75
2022/09/18 10:58:32;;;;;;;3.83;1.97;;;19.60;1.00;;;;;;5050749;28;20422;-75
2022/09/18 11:01:04;;;;;;;6.40;2.50;;;21.10;1.00;;;;;;5050344;28;20469;-75
2022/09/18 11:03:36;;;;;;;5.77;2.00;;;22.10;1.00;;;;;;5047422;28;20434;-76
2022/09/18 11:06:05;;;;;;;5.37;1.90;;;22.60;1.00;;;;;;5052495;28;20937;-74
2022/09/18 11:08:35;;;;;;;5.90;1.83;;;22.00;1.00;;;;;;5042326;28;20416;-75
2022/09/18 11:11:12;;;;;;;6.47;2.00;;;20.70;1.00;;;;;;5047697;28;20466;-75
2022/09/18 11:13:51;;;;;;;4.80;2.13;;;20.60;1.00;;;;;;5051737;28;20408;-75
2022/09/18 11:16:46;;;;;;;7.83;2.30;;;20.10;1.00;;;;;;5048983;28;20458;-75
2022/09/18 11:19:33;;;;;;;4.00;2.03;;;20.00;1.00;;;;;;5036183;28;20439;-75
2022/09/18 11:22:02;;;;;;;5.10;2.20;;;19.90;1.00;;;;;;5050513;28;20966;-75
2022/09/18 11:24:30;;;;;;;6.87;2.60;;;19.60;1.00;;;;;;5041303;28;20435;-75
2022/09/18 11:26:59;;;;;;;3.20;1.80;;;19.90;1.00;;;;;;5050797;28;20440;-75
2022/09/18 11:29:29;;;;;;;4.63;1.70;;;20.80;1.00;;;;;;5045261;28;20431;-74
2022/09/18 11:32:17;;;;;;;6.50;2.27;;;21.00;1.00;;;;;;5049416;28;20447;-76
2022/09/18 11:34:52;;;;;;;4.67;2.07;;;20.40;1.00;;;;;;5045325;28;20864;-76
2022/09/18 11:37:52;;;;;;;5.00;2.13;;;19.60;1.00;;;;;;5047895;28;20447;-76
2022/09/18 11:40:24;;;;;;;6.77;2.40;;;18.70;1.00;;;;;;5043912;28;20454;-76
2022/09/18 11:42:52;;;;;;;6.40;1.80;;;18.10;1.00;;;;;;5050950;28;20443;-76
2022/09/18 11:45:33;;;;;;;3.43;1.87;;;17.50;1.00;;;;;;5045393;28;20519;-74
2022/09/18 11:48:21;;;;;;;4.70;1.77;;;17.20;1.00;;;;;;5048320;28;20466;-76
2022/09/18 11:50:50;;;;;;;5.47;1.93;;;16.90;1.00;;;;;;5050159;28;20458;-75
2022/09/18 11:53:40;;;;;;;6.73;1.70;;;16.80;1.00;;;;;;5046761;28;20430;-75
2022/09/18 11:56:21;;;;;;;3.40;1.73;;;16.60;1.00;;;;;;5040488;28;20543;-77
2022/09/18 11:59:02;;;;;;;13.17;2.13;;;16.80;1.00;;;;;;5041986;28;20532;-76
2022/09/18 12:01:42;;;;;;;3.70;1.60;;;16.90;1.00;;;;;;5036764;28;20467;-75
2022/09/18 12:04:35;;;;;;;4.17;1.70;;;16.90;1.00;;;;;;5036573;28;20439;-75
2022/09/18 12:07:32;;;;;;;3.90;1.67;;;16.90;1.00;;;;;;5041433;28;21059;-75
2022/09/18 12:10:21;;;;;;;2.33;1.53;;;16.70;1.00;;;;;;5041602;28;20423;-76
2022/09/18 12:13:15;;;;;;;5.57;1.77;;;16.60;1.00;;;;;;5044023;28;20421;-76
2022/09/18 12:15:47;;;;;;;5.17;1.80;;;16.40;1.00;;;;;;5048484;28;20431;-75
2022/09/18 12:18:18;;;;;;;4.17;1.57;;;16.40;1.00;;;;;;5044523;28;20601;-77
2022/09/18 12:20:48;;;;;;;5.33;1.63;;;16.40;1.00;;;;;;5043759;28;20413;-75
2022/09/18 12:23:21;;;;;;;2.93;1.40;;;16.50;1.00;;;;;;5050170;28;21824;-75
2022/09/18 12:26:17;;;;;;;5.70;1.60;;;16.30;1.00;;;;;;5048283;28;20427;-76
2022/09/18 12:29:21;;;;;;;1.80;1.50;;;16.30;1.00;;;;;;5052301;28;20439;-75
2022/09/18 12:32:06;;;;;;;4.70;1.90;;;16.30;1.00;;;;;;5043687;28;20477;-75
2022/09/18 12:34:47;;;;;;;4.70;1.50;;;16.40;1.00;;;;;;5034640;28;20428;-75
2022/09/18 12:37:42;;;;;;;1.90;1.30;;;16.40;1.00;;;;;;5039272;28;20446;-75
2022/09/18 12:40:33;;;;;;;4.17;1.80;;;16.50;1.00;;;;;;5042565;28;20541;-75
2022/09/18 12:43:35;;;;;;;3.63;1.50;;;16.60;1.00;;;;;;5034864;28;20438;-75
2022/09/18 12:46:19;;;;;;;7.40;2.10;;;16.60;1.00;;;;;;5048816;28;20410;-76
2022/09/18 12:49:13;;;;;;;3.83;1.53;;;16.70;1.00;;;;;;5039787;28;20420;-75
2022/09/18 12:51:47;;;;;;;5.60;2.17;;;17.00;1.00;;;;;;5044293;28;20957;-75
2022/09/18 12:54:13;;;;;;;2.80;1.63;;;17.20;1.00;;;;;;5044718;28;20454;-75
2022/09/18 12:57:08;;;;;;;3.20;1.60;;;17.60;1.00;;;;;;5042587;28;20506;-75
2022/09/18 13:00:08;;;;;;;1.73;1.40;;;17.20;1.00;;;;;;5040486;28;20174;-75
2022/09/18 13:02:52;;;;;;;3.40;1.87;;;17.00;1.00;;;;;;5044702;28;20557;-75
2022/09/18 13:05:30;;;;;;;1.67;1.30;;;16.90;1.00;;;;;;5033876;28;20431;-75
2022/09/18 13:08:10;;;;;;;3.67;1.93;;;16.80;1.00;;;;;;5048663;28;20415;-75
2022/09/18 13:10:42;;;;;;;6.30;1.67;;;16.60;1.00;;;;;;5042941;28;20455;-76
2022/09/18 13:13:32;;;;;;;2.57;1.73;;;16.50;1.00;;;;;;5039195;28;20874;-75
2022/09/18 13:16:21;;;;;;;2.03;1.40;;;16.60;1.00;;;;;;5061637;28;20893;-75
2022/09/18 13:19:10;;;;;;;4.40;2.07;;;16.50;1.00;;;;;;5042896;28;20464;-75
2022/09/18 13:21:43;;;;;;;2.90;1.87;;;16.60;1.00;;;;;;5049008;28;20491;-75